sensor_id;sensor_type;location;lat;lon;timestamp;P1;durP1;ratioP1;P2;durP2;ratioP2
10661;SDS011;5379;51.034;7.006;2023-05-16T04:31:08;3.20;;;1.37;;
10661;SDS011;5379;51.034;7.006;2023-05-16T04:33:35;2.73;;;1.73;;
10661;SDS011;5379;51.034;7.006;2023-05-16T04:36:03;2.50;;;1.30;;
10661;SDS011;5379;51.034;7.006;2023-05-16T04:38:30;3.63;;;2.20;;
10661;SDS011;5379;51.034;7.006;2023-05-16T04:40:57;3.43;;;1.53;;
10661;SDS011;5379;51.034;7.006;2023-05-16T04:43:25;5.27;;;2.10;;
10661;SDS011;5379;51.034;7.006;2023-05-16T04:45:51;6.07;;;2.00;;
10661;SDS011;5379;51.034;7.006;2023-05-16T04:48:20;1.73;;;1.40;;
10661;SDS011;5379;51.034;7.006;2023-05-16T04:50:47;3.23;;;1.73;;
10661;SDS011;5379;51.034;7.006;2023-05-16T04:53:14;9.00;;;2.43;;
10661;SDS011;5379;51.034;7.006;2023-05-16T04:55:41;3.20;;;1.67;;
10661;SDS011;5379;51.034;7.006;2023-05-16T04:58:08;1.53;;;1.40;;
10661;SDS011;5379;51.034;7.006;2023-05-16T05:00:35;2.43;;;1.50;;
10661;SDS011;5379;51.034;7.006;2023-05-16T05:03:02;4.37;;;1.63;;
10661;SDS011;5379;51.034;7.006;2023-05-16T05:05:31;5.47;;;2.13;;
10661;SDS011;5379;51.034;7.006;2023-05-16T05:07:58;4.50;;;1.50;;
10661;SDS011;5379;51.034;7.006;2023-05-16T05:10:25;7.17;;;2.00;;
10661;SDS011;5379;51.034;7.006;2023-05-16T05:12:52;2.27;;;1.47;;
10661;SDS011;5379;51.034;7.006;2023-05-16T05:15:19;3.73;;;1.93;;
10661;SDS011;5379;51.034;7.006;2023-05-16T05:17:46;2.97;;;1.67;;
10661;SDS011;5379;51.034;7.006;2023-05-16T05:20:13;3.23;;;1.93;;
10661;SDS011;5379;51.034;7.006;2023-05-16T05:22:42;1.63;;;1.53;;
10661;SDS011;5379;51.034;7.006;2023-05-16T05:25:09;2.50;;;1.80;;
10661;SDS011;5379;51.034;7.006;2023-05-16T05:27:36;6.50;;;1.60;;
10661;SDS011;5379;51.034;7.006;2023-05-16T05:30:04;2.73;;;1.70;;
10661;SDS011;5379;51.034;7.006;2023-05-16T05:32:31;9.20;;;2.33;;
10661;SDS011;5379;51.034;7.006;2023-05-16T05:34:59;3.73;;;2.00;;
10661;SDS011;5379;51.034;7.006;2023-05-16T05:37:25;2.87;;;1.77;;
10661;SDS011;5379;51.034;7.006;2023-05-16T05:39:54;1.57;;;1.47;;
10661;SDS011;5379;51.034;7.006;2023-05-16T05:42:21;3.63;;;2.13;;
10661;SDS011;5379;51.034;7.006;2023-05-16T05:44:48;4.43;;;1.77;;
10661;SDS011;5379;51.034;7.006;2023-05-16T05:47:15;30.57;;;2.27;;
10661;SDS011;5379;51.034;7.006;2023-05-16T05:49:42;7.43;;;1.90;;
10661;SDS011;5379;51.034;7.006;2023-05-16T05:52:09;2.77;;;1.60;;
10661;SDS011;5379;51.034;7.006;2023-05-16T05:54:36;2.50;;;1.50;;
10661;SDS011;5379;51.034;7.006;2023-05-16T05:57:05;3.17;;;1.70;;
10661;SDS011;5379;51.034;7.006;2023-05-16T05:59:32;5.53;;;1.93;;
10661;SDS011;5379;51.034;7.006;2023-05-16T06:01:59;3.27;;;1.37;;
10661;SDS011;5379;51.034;7.006;2023-05-16T06:04:26;4.30;;;1.60;;
10661;SDS011;5379;51.034;7.006;2023-05-16T06:06:53;5.17;;;1.70;;
10661;SDS011;5379;51.034;7.006;2023-05-16T06:09:20;2.73;;;1.60;;
10661;SDS011;5379;51.034;7.006;2023-05-16T06:11:48;1.63;;;1.20;;
10661;SDS011;5379;51.034;7.006;2023-05-16T06:14:16;2.80;;;1.53;;
10661;SDS011;5379;51.034;7.006;2023-05-16T06:16:43;6.23;;;2.03;;
10661;SDS011;5379;51.034;7.006;2023-05-16T06:19:10;1.43;;;1.33;;
10661;SDS011;5379;51.034;7.006;2023-05-16T06:21:40;3.33;;;1.70;;
10661;SDS011;5379;51.034;7.006;2023-05-16T06:24:07;0.87;;;0.73;;
10661;SDS011;5379;51.034;7.006;2023-05-16T06:26:34;1.83;;;1.30;;
10661;SDS011;5379;51.034;7.006;2023-05-16T06:29:01;1.80;;;1.37;;
10661;SDS011;5379;51.034;7.006;2023-05-16T06:31:30;2.10;;;1.00;;
10661;SDS011;5379;51.034;7.006;2023-05-16T06:33:57;1.37;;;1.20;;
10661;SDS011;5379;51.034;7.006;2023-05-16T06:36:24;3.50;;;1.27;;
10661;SDS011;5379;51.034;7.006;2023-05-16T06:38:51;2.90;;;1.60;;
10661;SDS011;5379;51.034;7.006;2023-05-16T06:41:18;12.97;;;1.83;;
10661;SDS011;5379;51.034;7.006;2023-05-16T06:43:45;3.03;;;1.27;;
10661;SDS011;5379;51.034;7.006;2023-05-16T06:46:12;3.60;;;1.20;;
10661;SDS011;5379;51.034;7.006;2023-05-16T06:48:41;5.30;;;1.13;;
10661;SDS011;5379;51.034;7.006;2023-05-16T06:51:08;3.17;;;1.43;;
10661;SDS011;5379;51.034;7.006;2023-05-16T06:53:35;2.00;;;1.13;;
10661;SDS011;5379;51.034;7.006;2023-05-16T06:56:02;4.53;;;1.30;;
10661;SDS011;5379;51.034;7.006;2023-05-16T06:58:29;1.80;;;0.90;;
10661;SDS011;5379;51.034;7.006;2023-05-16T07:00:56;3.47;;;1.43;;
10661;SDS011;5379;51.034;7.006;2023-05-16T07:03:23;1.43;;;1.07;;
10661;SDS011;5379;51.034;7.006;2023-05-16T07:05:51;2.17;;;1.20;;
10661;SDS011;5379;51.034;7.006;2023-05-16T07:08:18;2.17;;;1.00;;
10661;SDS011;5379;51.034;7.006;2023-05-16T07:10:45;2.53;;;1.50;;
10661;SDS011;5379;51.034;7.006;2023-05-16T07:13:12;1.80;;;1.07;;
10661;SDS011;5379;51.034;7.006;2023-05-16T07:15:39;2.87;;;1.33;;
10661;SDS011;5379;51.034;7.006;2023-05-16T07:18:06;1.83;;;1.07;;
10661;SDS011;5379;51.034;7.006;2023-05-16T07:20:33;1.50;;;1.10;;
10661;SDS011;5379;51.034;7.006;2023-05-16T07:23:01;2.07;;;1.37;;
10661;SDS011;5379;51.034;7.006;2023-05-16T07:25:28;6.23;;;1.43;;
10661;SDS011;5379;51.034;7.006;2023-05-16T07:27:56;0.67;;;0.67;;
10661;SDS011;5379;51.034;7.006;2023-05-16T07:30:23;1.63;;;0.83;;
10661;SDS011;5379;51.034;7.006;2023-05-16T07:32:50;4.33;;;1.20;;
10661;SDS011;5379;51.034;7.006;2023-05-16T07:35:17;3.90;;;1.40;;
10661;SDS011;5379;51.034;7.006;2023-05-16T07:37:44;2.07;;;1.10;;
10661;SDS011;5379;51.034;7.006;2023-05-16T07:40:13;0.83;;;0.83;;
10661;SDS011;5379;51.034;7.006;2023-05-16T07:42:42;1.13;;;1.00;;
10661;SDS011;5379;51.034;7.006;2023-05-16T07:45:09;1.27;;;0.83;;
10661;SDS011;5379;51.034;7.006;2023-05-16T07:47:36;2.03;;;0.87;;
10661;SDS011;5379;51.034;7.006;2023-05-16T07:50:03;1.53;;;1.20;;
10661;SDS011;5379;51.034;7.006;2023-05-16T07:52:31;1.90;;;1.03;;
10661;SDS011;5379;51.034;7.006;2023-05-16T07:54:57;0.80;;;0.70;;
10661;SDS011;5379;51.034;7.006;2023-05-16T07:57:26;0.83;;;0.83;;
10661;SDS011;5379;51.034;7.006;2023-05-16T07:59:54;2.03;;;1.00;;
10661;SDS011;5379;51.034;7.006;2023-05-16T08:02:21;2.73;;;1.20;;
10661;SDS011;5379;51.034;7.006;2023-05-16T08:04:50;1.27;;;0.97;;
10661;SDS011;5379;51.034;7.006;2023-05-16T08:07:17;3.97;;;1.00;;
10661;SDS011;5379;51.034;7.006;2023-05-16T08:09:44;1.60;;;0.90;;
10661;SDS011;5379;51.034;7.006;2023-05-16T08:12:11;1.67;;;0.97;;
10661;SDS011;5379;51.034;7.006;2023-05-16T08:14:40;1.13;;;0.80;;
10661;SDS011;5379;51.034;7.006;2023-05-16T08:17:06;2.43;;;1.07;;
10661;SDS011;5379;51.034;7.006;2023-05-16T08:19:33;1.27;;;0.90;;
10661;SDS011;5379;51.034;7.006;2023-05-16T08:22:01;1.33;;;0.87;;
10661;SDS011;5379;51.034;7.006;2023-05-16T08:24:28;0.97;;;0.93;;
10661;SDS011;5379;51.034;7.006;2023-05-16T08:26:54;4.20;;;1.37;;
10661;SDS011;5379;51.034;7.006;2023-05-16T08:29:22;1.30;;;1.00;;
10661;SDS011;5379;51.034;7.006;2023-05-16T08:31:50;2.43;;;1.23;;
10661;SDS011;5379;51.034;7.006;2023-05-16T08:34:17;1.50;;;0.53;;
10661;SDS011;5379;51.034;7.006;2023-05-16T08:36:44;0.50;;;0.50;;
10661;SDS011;5379;51.034;7.006;2023-05-16T08:39:13;1.23;;;1.00;;
10661;SDS011;5379;51.034;7.006;2023-05-16T08:41:40;2.47;;;1.07;;
10661;SDS011;5379;51.034;7.006;2023-05-16T08:44:07;2.27;;;0.90;;
10661;SDS011;5379;51.034;7.006;2023-05-16T08:46:35;1.03;;;0.93;;
10661;SDS011;5379;51.034;7.006;2023-05-16T08:49:04;1.60;;;0.47;;
10661;SDS011;5379;51.034;7.006;2023-05-16T08:51:32;1.97;;;1.00;;
10661;SDS011;5379;51.034;7.006;2023-05-16T08:54:02;1.87;;;1.10;;
10661;SDS011;5379;51.034;7.006;2023-05-16T08:56:31;2.83;;;0.93;;
10661;SDS011;5379;51.034;7.006;2023-05-16T08:58:59;13.23;;;1.17;;
10661;SDS011;5379;51.034;7.006;2023-05-16T09:01:28;1.60;;;0.87;;
10661;SDS011;5379;51.034;7.006;2023-05-16T09:03:56;0.50;;;0.50;;
10661;SDS011;5379;51.034;7.006;2023-05-16T09:06:25;0.50;;;0.50;;
10661;SDS011;5379;51.034;7.006;2023-05-16T09:08:52;0.60;;;0.57;;
10661;SDS011;5379;51.034;7.006;2023-05-16T09:11:19;0.90;;;0.70;;
10661;SDS011;5379;51.034;7.006;2023-05-16T09:13:46;0.73;;;0.73;;
10661;SDS011;5379;51.034;7.006;2023-05-16T09:16:15;0.50;;;0.50;;
10661;SDS011;5379;51.034;7.006;2023-05-16T09:18:43;0.80;;;0.80;;
10661;SDS011;5379;51.034;7.006;2023-05-16T09:21:11;0.60;;;0.60;;
10661;SDS011;5379;51.034;7.006;2023-05-16T09:23:42;1.50;;;1.00;;
10661;SDS011;5379;51.034;7.006;2023-05-16T09:26:10;1.13;;;0.50;;
10661;SDS011;5379;51.034;7.006;2023-05-16T09:28:37;0.80;;;0.80;;
10661;SDS011;5379;51.034;7.006;2023-05-16T09:31:18;1.47;;;0.83;;
10661;SDS011;5379;51.034;7.006;2023-05-16T09:33:46;1.00;;;0.53;;
10661;SDS011;5379;51.034;7.006;2023-05-16T09:36:14;1.87;;;1.30;;
10661;SDS011;5379;51.034;7.006;2023-05-16T09:38:43;1.80;;;0.73;;
10661;SDS011;5379;51.034;7.006;2023-05-16T09:41:10;2.83;;;1.03;;
10661;SDS011;5379;51.034;7.006;2023-05-16T09:43:38;2.13;;;1.13;;
10661;SDS011;5379;51.034;7.006;2023-05-16T09:46:07;0.70;;;0.70;;
10661;SDS011;5379;51.034;7.006;2023-05-16T09:48:34;0.43;;;0.43;;
10661;SDS011;5379;51.034;7.006;2023-05-16T09:51:02;1.03;;;0.90;;
10661;SDS011;5379;51.034;7.006;2023-05-16T09:53:31;4.33;;;0.97;;
10661;SDS011;5379;51.034;7.006;2023-05-16T09:56:00;1.20;;;1.10;;
10661;SDS011;5379;51.034;7.006;2023-05-16T09:58:29;0.60;;;0.60;;
10661;SDS011;5379;51.034;7.006;2023-05-16T10:00:57;1.70;;;0.63;;
10661;SDS011;5379;51.034;7.006;2023-05-16T10:03:24;0.77;;;0.53;;
10661;SDS011;5379;51.034;7.006;2023-05-16T10:05:52;0.53;;;0.53;;
10661;SDS011;5379;51.034;7.006;2023-05-16T10:08:20;0.80;;;0.80;;
10661;SDS011;5379;51.034;7.006;2023-05-16T10:10:49;0.80;;;0.67;;
10661;SDS011;5379;51.034;7.006;2023-05-16T10:13:19;0.90;;;0.90;;
10661;SDS011;5379;51.034;7.006;2023-05-16T10:15:47;3.00;;;1.40;;
10661;SDS011;5379;51.034;7.006;2023-05-16T10:18:15;1.33;;;0.80;;
10661;SDS011;5379;51.034;7.006;2023-05-16T10:20:44;1.27;;;0.83;;
10661;SDS011;5379;51.034;7.006;2023-05-16T10:23:16;0.50;;;0.50;;
10661;SDS011;5379;51.034;7.006;2023-05-16T10:25:44;0.80;;;0.80;;
10661;SDS011;5379;51.034;7.006;2023-05-16T10:28:13;2.70;;;0.67;;
10661;SDS011;5379;51.034;7.006;2023-05-16T10:30:43;1.20;;;1.10;;
10661;SDS011;5379;51.034;7.006;2023-05-16T10:33:11;6.90;;;1.10;;
10661;SDS011;5379;51.034;7.006;2023-05-16T10:35:39;6.97;;;1.40;;
10661;SDS011;5379;51.034;7.006;2023-05-16T10:38:08;0.60;;;0.60;;
10661;SDS011;5379;51.034;7.006;2023-05-16T10:40:38;0.97;;;0.70;;
10661;SDS011;5379;51.034;7.006;2023-05-16T10:43:06;2.37;;;0.87;;
10661;SDS011;5379;51.034;7.006;2023-05-16T10:45:34;0.93;;;0.50;;
10661;SDS011;5379;51.034;7.006;2023-05-16T10:48:07;1.43;;;0.83;;
10661;SDS011;5379;51.034;7.006;2023-05-16T10:50:37;2.10;;;0.97;;
10661;SDS011;5379;51.034;7.006;2023-05-16T10:53:12;0.50;;;0.50;;
10661;SDS011;5379;51.034;7.006;2023-05-16T10:55:48;0.90;;;0.90;;
10661;SDS011;5379;51.034;7.006;2023-05-16T10:58:41;1.10;;;0.70;;
10661;SDS011;5379;51.034;7.006;2023-05-16T11:01:16;0.50;;;0.50;;
10661;SDS011;5379;51.034;7.006;2023-05-16T11:04:06;1.07;;;0.63;;
10661;SDS011;5379;51.034;7.006;2023-05-16T11:06:34;1.50;;;0.70;;
10661;SDS011;5379;51.034;7.006;2023-05-16T11:09:17;1.07;;;0.97;;
10661;SDS011;5379;51.034;7.006;2023-05-16T11:11:47;1.47;;;0.60;;
10661;SDS011;5379;51.034;7.006;2023-05-16T11:14:21;0.90;;;0.80;;
10661;SDS011;5379;51.034;7.006;2023-05-16T11:16:49;1.33;;;0.77;;
10661;SDS011;5379;51.034;7.006;2023-05-16T11:19:34;0.50;;;0.50;;
10661;SDS011;5379;51.034;7.006;2023-05-16T11:22:11;1.23;;;0.63;;
10661;SDS011;5379;51.034;7.006;2023-05-16T11:24:51;0.73;;;0.73;;
10661;SDS011;5379;51.034;7.006;2023-05-16T11:27:23;0.57;;;0.57;;
10661;SDS011;5379;51.034;7.006;2023-05-16T11:29:52;0.73;;;0.73;;
10661;SDS011;5379;51.034;7.006;2023-05-16T11:32:20;1.13;;;0.93;;
10661;SDS011;5379;51.034;7.006;2023-05-16T11:34:50;0.70;;;0.70;;
10661;SDS011;5379;51.034;7.006;2023-05-16T11:37:18;1.80;;;1.70;;
10661;SDS011;5379;51.034;7.006;2023-05-16T11:39:45;0.70;;;0.70;;
10661;SDS011;5379;51.034;7.006;2023-05-16T11:42:12;0.67;;;0.67;;
10661;SDS011;5379;51.034;7.006;2023-05-16T11:44:39;0.40;;;0.40;;
10661;SDS011;5379;51.034;7.006;2023-05-16T11:47:07;1.97;;;0.70;;
10661;SDS011;5379;51.034;7.006;2023-05-16T11:49:34;0.53;;;0.50;;
10661;SDS011;5379;51.034;7.006;2023-05-16T11:52:02;1.00;;;1.00;;
10661;SDS011;5379;51.034;7.006;2023-05-16T11:54:30;0.83;;;0.70;;
10661;SDS011;5379;51.034;7.006;2023-05-16T11:56:58;0.60;;;0.60;;
10661;SDS011;5379;51.034;7.006;2023-05-16T11:59:26;0.80;;;0.80;;
10661;SDS011;5379;51.034;7.006;2023-05-16T12:01:53;1.87;;;1.33;;
10661;SDS011;5379;51.034;7.006;2023-05-16T12:04:20;1.30;;;1.10;;
10661;SDS011;5379;51.034;7.006;2023-05-16T12:06:56;1.07;;;0.97;;
10661;SDS011;5379;51.034;7.006;2023-05-16T12:09:28;0.83;;;0.70;;
10661;SDS011;5379;51.034;7.006;2023-05-16T12:11:55;1.77;;;0.90;;
10661;SDS011;5379;51.034;7.006;2023-05-16T12:14:22;0.97;;;0.97;;
10661;SDS011;5379;51.034;7.006;2023-05-16T12:16:50;1.80;;;1.37;;
10661;SDS011;5379;51.034;7.006;2023-05-16T12:19:18;0.63;;;0.50;;
10661;SDS011;5379;51.034;7.006;2023-05-16T12:21:46;1.10;;;0.80;;
10661;SDS011;5379;51.034;7.006;2023-05-16T12:24:13;2.73;;;1.40;;
10661;SDS011;5379;51.034;7.006;2023-05-16T12:26:43;0.70;;;0.70;;
10661;SDS011;5379;51.034;7.006;2023-05-16T12:29:09;1.17;;;0.83;;
10661;SDS011;5379;51.034;7.006;2023-05-16T12:31:37;1.70;;;0.60;;
10661;SDS011;5379;51.034;7.006;2023-05-16T12:34:13;0.57;;;0.57;;
10661;SDS011;5379;51.034;7.006;2023-05-16T12:36:41;0.80;;;0.70;;
10661;SDS011;5379;51.034;7.006;2023-05-16T12:39:10;0.77;;;0.77;;
10661;SDS011;5379;51.034;7.006;2023-05-16T12:41:39;0.40;;;0.40;;
10661;SDS011;5379;51.034;7.006;2023-05-16T12:44:12;0.23;;;0.23;;
10661;SDS011;5379;51.034;7.006;2023-05-16T12:46:42;0.73;;;0.60;;
10661;SDS011;5379;51.034;7.006;2023-05-16T12:49:10;1.00;;;0.60;;
10661;SDS011;5379;51.034;7.006;2023-05-16T12:51:37;0.80;;;0.80;;
10661;SDS011;5379;51.034;7.006;2023-05-16T12:54:07;1.00;;;0.97;;
10661;SDS011;5379;51.034;7.006;2023-05-16T12:56:36;0.80;;;0.80;;
10661;SDS011;5379;51.034;7.006;2023-05-16T12:59:04;1.80;;;0.37;;
10661;SDS011;5379;51.034;7.006;2023-05-16T13:01:32;1.13;;;1.03;;
10661;SDS011;5379;51.034;7.006;2023-05-16T13:03:59;0.63;;;0.60;;
10661;SDS011;5379;51.034;7.006;2023-05-16T13:06:27;0.40;;;0.40;;
10661;SDS011;5379;51.034;7.006;2023-05-16T13:08:54;0.67;;;0.67;;
10661;SDS011;5379;51.034;7.006;2023-05-16T13:11:22;0.73;;;0.73;;
10661;SDS011;5379;51.034;7.006;2023-05-16T13:13:50;2.77;;;0.70;;
10661;SDS011;5379;51.034;7.006;2023-05-16T13:16:17;0.40;;;0.40;;
10661;SDS011;5379;51.034;7.006;2023-05-16T13:18:45;0.40;;;0.40;;
10661;SDS011;5379;51.034;7.006;2023-05-16T13:21:12;1.50;;;0.90;;
10661;SDS011;5379;51.034;7.006;2023-05-16T13:23:40;0.40;;;0.40;;
10661;SDS011;5379;51.034;7.006;2023-05-16T13:26:07;0.50;;;0.50;;
10661;SDS011;5379;51.034;7.006;2023-05-16T13:28:34;0.40;;;0.40;;
10661;SDS011;5379;51.034;7.006;2023-05-16T13:31:01;1.50;;;0.67;;
10661;SDS011;5379;51.034;7.006;2023-05-16T13:33:28;0.50;;;0.50;;
10661;SDS011;5379;51.034;7.006;2023-05-16T13:35:56;0.77;;;0.53;;
10661;SDS011;5379;51.034;7.006;2023-05-16T13:38:23;2.20;;;0.83;;
10661;SDS011;5379;51.034;7.006;2023-05-16T13:40:51;0.43;;;0.43;;
10661;SDS011;5379;51.034;7.006;2023-05-16T13:43:18;0.50;;;0.50;;
10661;SDS011;5379;51.034;7.006;2023-05-16T13:45:44;1.00;;;0.90;;
10661;SDS011;5379;51.034;7.006;2023-05-16T13:48:11;0.70;;;0.70;;
10661;SDS011;5379;51.034;7.006;2023-05-16T13:50:38;0.40;;;0.40;;
10661;SDS011;5379;51.034;7.006;2023-05-16T13:53:07;1.07;;;0.70;;
10661;SDS011;5379;51.034;7.006;2023-05-16T13:55:34;0.50;;;0.50;;
10661;SDS011;5379;51.034;7.006;2023-05-16T13:58:01;0.20;;;0.20;;
10661;SDS011;5379;51.034;7.006;2023-05-16T14:00:28;3.30;;;0.87;;
10661;SDS011;5379;51.034;7.006;2023-05-16T14:02:55;1.53;;;0.80;;
10661;SDS011;5379;51.034;7.006;2023-05-16T14:05:22;0.83;;;0.83;;
10661;SDS011;5379;51.034;7.006;2023-05-16T14:07:50;1.53;;;0.70;;
10661;SDS011;5379;51.034;7.006;2023-05-16T14:10:18;1.43;;;0.97;;
10661;SDS011;5379;51.034;7.006;2023-05-16T14:12:45;1.03;;;0.93;;
10661;SDS011;5379;51.034;7.006;2023-05-16T14:15:13;0.50;;;0.50;;
10661;SDS011;5379;51.034;7.006;2023-05-16T14:17:40;0.30;;;0.30;;
10661;SDS011;5379;51.034;7.006;2023-05-16T14:20:07;0.40;;;0.40;;
10661;SDS011;5379;51.034;7.006;2023-05-16T14:22:34;0.47;;;0.47;;
10661;SDS011;5379;51.034;7.006;2023-05-16T14:25:02;0.47;;;0.40;;
10661;SDS011;5379;51.034;7.006;2023-05-16T14:27:31;0.50;;;0.50;;
10661;SDS011;5379;51.034;7.006;2023-05-16T14:29:58;0.43;;;0.40;;
10661;SDS011;5379;51.034;7.006;2023-05-16T14:32:26;0.30;;;0.30;;
10661;SDS011;5379;51.034;7.006;2023-05-16T14:34:53;0.57;;;0.40;;
10661;SDS011;5379;51.034;7.006;2023-05-16T14:37:19;0.60;;;0.60;;
10661;SDS011;5379;51.034;7.006;2023-05-16T14:39:47;0.90;;;0.80;;
10661;SDS011;5379;51.034;7.006;2023-05-16T14:42:14;0.70;;;0.60;;
10661;SDS011;5379;51.034;7.006;2023-05-16T14:44:44;0.70;;;0.30;;
10661;SDS011;5379;51.034;7.006;2023-05-16T14:47:11;6.23;;;0.40;;
10661;SDS011;5379;51.034;7.006;2023-05-16T14:49:38;0.70;;;0.70;;
10661;SDS011;5379;51.034;7.006;2023-05-16T14:52:05;3.70;;;1.10;;
10661;SDS011;5379;51.034;7.006;2023-05-16T14:54:32;0.30;;;0.30;;
10661;SDS011;5379;51.034;7.006;2023-05-16T14:57:00;0.63;;;0.63;;
10661;SDS011;5379;51.034;7.006;2023-05-16T14:59:29;2.70;;;0.87;;
10661;SDS011;5379;51.034;7.006;2023-05-16T15:01:57;0.73;;;0.53;;
10661;SDS011;5379;51.034;7.006;2023-05-16T15:04:25;1.07;;;0.67;;
10661;SDS011;5379;51.034;7.006;2023-05-16T15:06:53;0.50;;;0.50;;
10661;SDS011;5379;51.034;7.006;2023-05-16T15:09:20;0.50;;;0.50;;
10661;SDS011;5379;51.034;7.006;2023-05-16T15:11:47;2.00;;;1.03;;
10661;SDS011;5379;51.034;7.006;2023-05-16T15:14:14;1.37;;;1.10;;
10661;SDS011;5379;51.034;7.006;2023-05-16T15:16:41;1.27;;;1.10;;
10661;SDS011;5379;51.034;7.006;2023-05-16T15:19:09;1.20;;;1.10;;
10661;SDS011;5379;51.034;7.006;2023-05-16T15:21:36;1.50;;;0.70;;
10661;SDS011;5379;51.034;7.006;2023-05-16T15:24:03;0.60;;;0.60;;
10661;SDS011;5379;51.034;7.006;2023-05-16T15:26:32;0.57;;;0.57;;
10661;SDS011;5379;51.034;7.006;2023-05-16T15:28:59;0.77;;;0.70;;
10661;SDS011;5379;51.034;7.006;2023-05-16T15:31:26;3.20;;;1.17;;
10661;SDS011;5379;51.034;7.006;2023-05-16T15:33:55;1.07;;;1.07;;
10661;SDS011;5379;51.034;7.006;2023-05-16T15:36:23;1.03;;;0.93;;
10661;SDS011;5379;51.034;7.006;2023-05-16T15:38:51;0.70;;;0.70;;
10661;SDS011;5379;51.034;7.006;2023-05-16T15:41:18;0.87;;;0.80;;
10661;SDS011;5379;51.034;7.006;2023-05-16T15:43:45;1.37;;;0.73;;
10661;SDS011;5379;51.034;7.006;2023-05-16T15:46:14;0.70;;;0.70;;
10661;SDS011;5379;51.034;7.006;2023-05-16T15:48:41;0.70;;;0.70;;
10661;SDS011;5379;51.034;7.006;2023-05-16T15:51:09;0.80;;;0.80;;
10661;SDS011;5379;51.034;7.006;2023-05-16T15:53:38;1.47;;;1.37;;
10661;SDS011;5379;51.034;7.006;2023-05-16T15:56:05;0.70;;;0.70;;
10661;SDS011;5379;51.034;7.006;2023-05-16T15:58:33;1.37;;;1.27;;
10661;SDS011;5379;51.034;7.006;2023-05-16T16:01:00;1.60;;;1.23;;
10661;SDS011;5379;51.034;7.006;2023-05-16T16:03:27;0.87;;;0.87;;
10661;SDS011;5379;51.034;7.006;2023-05-16T16:05:54;0.60;;;0.60;;
10661;SDS011;5379;51.034;7.006;2023-05-16T16:08:21;1.83;;;1.30;;
10661;SDS011;5379;51.034;7.006;2023-05-16T16:10:50;0.80;;;0.80;;
10661;SDS011;5379;51.034;7.006;2023-05-16T16:13:17;0.73;;;0.73;;
10661;SDS011;5379;51.034;7.006;2023-05-16T16:15:45;0.87;;;0.80;;
10661;SDS011;5379;51.034;7.006;2023-05-16T16:18:13;1.33;;;1.23;;
10661;SDS011;5379;51.034;7.006;2023-05-16T16:20:40;1.30;;;1.10;;
10661;SDS011;5379;51.034;7.006;2023-05-16T16:23:07;0.40;;;0.40;;
10661;SDS011;5379;51.034;7.006;2023-05-16T16:25:34;0.40;;;0.40;;
10661;SDS011;5379;51.034;7.006;2023-05-16T16:28:03;1.30;;;1.20;;
10661;SDS011;5379;51.034;7.006;2023-05-16T16:30:30;0.83;;;0.83;;
10661;SDS011;5379;51.034;7.006;2023-05-16T16:32:57;0.90;;;0.90;;
10661;SDS011;5379;51.034;7.006;2023-05-16T16:35:24;1.13;;;1.13;;
10661;SDS011;5379;51.034;7.006;2023-05-16T16:37:51;1.10;;;1.10;;
10661;SDS011;5379;51.034;7.006;2023-05-16T16:40:18;1.60;;;1.50;;
10661;SDS011;5379;51.034;7.006;2023-05-16T16:42:45;0.80;;;0.80;;
10661;SDS011;5379;51.034;7.006;2023-05-16T16:45:14;1.13;;;1.13;;
10661;SDS011;5379;51.034;7.006;2023-05-16T16:47:41;2.43;;;1.03;;
10661;SDS011;5379;51.034;7.006;2023-05-16T16:50:08;1.37;;;0.90;;
10661;SDS011;5379;51.034;7.006;2023-05-16T16:52:36;0.93;;;0.93;;
10661;SDS011;5379;51.034;7.006;2023-05-16T16:55:04;2.83;;;1.10;;
10661;SDS011;5379;51.034;7.006;2023-05-16T16:57:31;1.63;;;1.07;;
10661;SDS011;5379;51.034;7.006;2023-05-16T16:59:58;0.70;;;0.70;;
10661;SDS011;5379;51.034;7.006;2023-05-16T17:02:26;1.40;;;1.10;;
10661;SDS011;5379;51.034;7.006;2023-05-16T17:04:53;1.17;;;0.83;;
10661;SDS011;5379;51.034;7.006;2023-05-16T17:07:20;0.57;;;0.57;;
10661;SDS011;5379;51.034;7.006;2023-05-16T17:09:47;0.77;;;0.43;;
10661;SDS011;5379;51.034;7.006;2023-05-16T17:12:14;1.33;;;1.23;;
10661;SDS011;5379;51.034;7.006;2023-05-16T17:14:44;1.50;;;0.70;;
10661;SDS011;5379;51.034;7.006;2023-05-16T17:17:12;1.90;;;0.90;;
10661;SDS011;5379;51.034;7.006;2023-05-16T17:19:40;0.60;;;0.60;;
10661;SDS011;5379;51.034;7.006;2023-05-16T17:22:07;0.50;;;0.50;;
10661;SDS011;5379;51.034;7.006;2023-05-16T17:24:34;1.10;;;1.00;;
10661;SDS011;5379;51.034;7.006;2023-05-16T17:27:01;1.10;;;1.10;;
10661;SDS011;5379;51.034;7.006;2023-05-16T17:29:28;1.63;;;1.33;;
10661;SDS011;5379;51.034;7.006;2023-05-16T17:31:55;0.93;;;0.93;;
10661;SDS011;5379;51.034;7.006;2023-05-16T17:34:23;1.30;;;1.20;;
10661;SDS011;5379;51.034;7.006;2023-05-16T17:36:51;0.80;;;0.80;;
10661;SDS011;5379;51.034;7.006;2023-05-16T17:39:18;0.60;;;0.60;;
10661;SDS011;5379;51.034;7.006;2023-05-16T17:41:45;0.70;;;0.70;;
10661;SDS011;5379;51.034;7.006;2023-05-16T17:44:12;1.47;;;1.30;;
10661;SDS011;5379;51.034;7.006;2023-05-16T17:46:39;1.27;;;1.17;;
10661;SDS011;5379;51.034;7.006;2023-05-16T17:49:07;1.73;;;1.30;;
10661;SDS011;5379;51.034;7.006;2023-05-16T17:51:43;1.67;;;1.10;;
10661;SDS011;5379;51.034;7.006;2023-05-16T17:54:13;0.70;;;0.70;;
10661;SDS011;5379;51.034;7.006;2023-05-16T17:56:41;1.30;;;1.10;;
10661;SDS011;5379;51.034;7.006;2023-05-16T17:59:08;0.80;;;0.80;;
10661;SDS011;5379;51.034;7.006;2023-05-16T18:01:35;2.23;;;1.00;;
10661;SDS011;5379;51.034;7.006;2023-05-16T18:04:02;1.30;;;1.10;;
10661;SDS011;5379;51.034;7.006;2023-05-16T18:06:30;0.90;;;0.90;;
10661;SDS011;5379;51.034;7.006;2023-05-16T18:08:57;1.03;;;1.03;;
10661;SDS011;5379;51.034;7.006;2023-05-16T18:11:26;0.83;;;0.83;;
10661;SDS011;5379;51.034;7.006;2023-05-16T18:13:53;0.97;;;0.97;;
10661;SDS011;5379;51.034;7.006;2023-05-16T18:16:20;1.00;;;1.00;;
10661;SDS011;5379;51.034;7.006;2023-05-16T18:18:47;0.77;;;0.73;;
10661;SDS011;5379;51.034;7.006;2023-05-16T18:21:14;1.40;;;1.30;;
10661;SDS011;5379;51.034;7.006;2023-05-16T18:23:41;0.90;;;0.90;;
10661;SDS011;5379;51.034;7.006;2023-05-16T18:26:08;1.30;;;1.20;;
10661;SDS011;5379;51.034;7.006;2023-05-16T18:28:36;1.37;;;1.13;;
10661;SDS011;5379;51.034;7.006;2023-05-16T18:31:03;0.80;;;0.80;;
10661;SDS011;5379;51.034;7.006;2023-05-16T18:33:31;2.53;;;1.40;;
10661;SDS011;5379;51.034;7.006;2023-05-16T18:36:00;1.20;;;1.10;;
10661;SDS011;5379;51.034;7.006;2023-05-16T18:38:27;4.37;;;0.90;;
10661;SDS011;5379;51.034;7.006;2023-05-16T18:40:54;2.03;;;1.23;;
10661;SDS011;5379;51.034;7.006;2023-05-16T18:43:21;1.20;;;1.10;;
10661;SDS011;5379;51.034;7.006;2023-05-16T18:45:49;1.17;;;1.00;;
10661;SDS011;5379;51.034;7.006;2023-05-16T18:48:16;1.27;;;1.17;;
10661;SDS011;5379;51.034;7.006;2023-05-16T18:50:43;0.80;;;0.80;;
10661;SDS011;5379;51.034;7.006;2023-05-16T18:53:10;1.60;;;1.27;;
10661;SDS011;5379;51.034;7.006;2023-05-16T18:55:37;1.37;;;1.33;;
10661;SDS011;5379;51.034;7.006;2023-05-16T18:58:04;0.80;;;0.80;;
10661;SDS011;5379;51.034;7.006;2023-05-16T19:00:31;2.50;;;1.43;;
10661;SDS011;5379;51.034;7.006;2023-05-16T19:02:59;1.43;;;1.33;;
10661;SDS011;5379;51.034;7.006;2023-05-16T19:05:26;1.03;;;1.03;;
10661;SDS011;5379;51.034;7.006;2023-05-16T19:07:53;1.23;;;1.17;;
10661;SDS011;5379;51.034;7.006;2023-05-16T19:10:20;0.83;;;0.83;;
10661;SDS011;5379;51.034;7.006;2023-05-16T19:12:49;0.97;;;0.97;;
10661;SDS011;5379;51.034;7.006;2023-05-16T19:15:16;3.07;;;1.13;;
10661;SDS011;5379;51.034;7.006;2023-05-16T19:17:42;1.30;;;1.30;;
10661;SDS011;5379;51.034;7.006;2023-05-16T19:20:11;0.97;;;0.80;;
10661;SDS011;5379;51.034;7.006;2023-05-16T19:22:38;1.20;;;1.20;;
10661;SDS011;5379;51.034;7.006;2023-05-16T19:25:05;3.40;;;1.00;;
10661;SDS011;5379;51.034;7.006;2023-05-16T19:27:33;1.40;;;1.30;;
10661;SDS011;5379;51.034;7.006;2023-05-16T19:30:00;0.60;;;0.60;;
10661;SDS011;5379;51.034;7.006;2023-05-16T19:32:27;0.77;;;0.77;;
10661;SDS011;5379;51.034;7.006;2023-05-16T19:34:54;1.23;;;1.17;;